Time;durP1;ratioP1;P1;durP2;ratioP2;P2;SDS_P1;SDS_P2;PMS_P1;PMS_P2;Temp;Humidity;BMP_temperature;BMP_pressure;BME280_temperature;BME280_humidity;BME280_pressure;Samples;Min_cycle;Max_cycle;Signal;HPM_P1;HPM_P2
2023/03/20 00:00:01;;;;;;;;;;;;;;;;;;5114219;28;1296;-69
2023/03/20 00:02:26;;;;;;;;;;;;;;;;;;5115378;28;875;-70
2023/03/20 00:04:51;;;;;;;;;;;;;;;;;;5113834;28;1268;-70
2023/03/20 00:07:17;;;;;;;;;;;;;;;;;;5113751;28;1290;-71
2023/03/20 00:09:42;;;;;;;;;;;;;;;;;;5113999;28;1177;-71
2023/03/20 00:12:13;;;;;;;;;;;;;;;;;;5113809;28;1209;-71
2023/03/20 00:14:39;;;;;;;;;;;;;;;;;;5114499;28;1955;-70
2023/03/20 00:17:09;;;;;;;;;;;;;;;;;;5114016;28;1202;-70
2023/03/20 00:19:34;;;;;;;;;;;;;;;;;;5113723;28;1190;-70
2023/03/20 00:21:59;;;;;;;;;;;;;;;;;;5113779;28;844;-69
2023/03/20 00:24:25;;;;;;;;;;;;;;;;;;5096274;28;1169;-70
2023/03/20 00:26:51;;;;;;;;;;;;;;;;;;5115185;28;916;-70
2023/03/20 00:29:23;;;;;;;;;;;;;;;;;;5114819;28;990;-70
2023/03/20 00:31:49;;;;;;;;;;;;;;;;;;5115213;28;824;-70
2023/03/20 00:34:16;;;;;;;;;;;;;;;;;;5113744;28;1906;-70
2023/03/20 00:36:41;;;;;;;;;;;;;;;;;;5114482;28;832;-70
2023/03/20 00:39:07;;;;;;;;;;;;;;;;;;5114613;28;982;-69
2023/03/20 00:41:37;;;;;;;;;;;;;;;;;;5113718;28;860;-70
2023/03/20 00:44:23;;;;;;;;;;;;;;;;;;5115187;28;967;-70
2023/03/20 00:46:50;;;;;;;;;;;;;;;;;;5113190;28;1142;-70
2023/03/20 00:49:15;;;;;;;;;;;;;;;;;;5114440;28;980;-70
2023/03/20 00:51:41;;;;;;;;;;;;;;;;;;5113755;28;1284;-70
2023/03/20 00:54:13;;;;;;;;;;;;;;;;;;5113170;28;1906;-70
2023/03/20 00:56:46;;;;;;;;;;;;;;;;;;5115012;28;816;-70
2023/03/20 00:59:17;;;;;;;;;;;;;;;;;;5113573;28;1079;-71
2023/03/20 01:01:42;;;;;;;;;;;;;;;;;;5115336;28;844;-71
2023/03/20 01:04:13;;;;;;;;;;;;;;;;;;5113256;28;879;-71
2023/03/20 01:06:38;;;;;;;;;;;;;;;;;;5113399;28;1156;-71
2023/03/20 01:09:04;;;;;;;;;;;;;;;;;;5113688;28;1138;-71
2023/03/20 01:11:30;;;;;;;;;;;;;;;;;;5114898;28;895;-71
2023/03/20 01:13:56;;;;;;;;;;;;;;;;;;5114511;28;1905;-71
2023/03/20 01:16:22;;;;;;;;;;;;;;;;;;5113072;28;1165;-71
2023/03/20 01:18:48;;;;;;;;;;;;;;;;;;5114673;28;1131;-71
2023/03/20 01:21:13;;;;;;;;;;;;;;;;;;5112688;28;1153;-70
2023/03/20 01:23:38;;;;;;;;;;;;;;;;;;5095840;28;1265;-71
2023/03/20 01:26:10;;;;;;;;;;;;;;;;;;5114033;28;1407;-71
2023/03/20 01:28:35;;;;;;;;;;;;;;;;;;5114260;28;990;-71
2023/03/20 01:31:00;;;;;;;;;;;;;;;;;;5095948;28;1308;-71
2023/03/20 01:33:28;;;;;;;;;;;;;;;;;;5095072;28;1901;-71
2023/03/20 01:35:53;;;;;;;;;;;;;;;;;;5096095;28;1210;-71
2023/03/20 01:38:26;;;;;;;;;;;;;;;;;;5114236;28;966;-71
2023/03/20 01:40:54;;;;;;;;;;;;;;;;;;5113901;28;871;-71
2023/03/20 01:43:21;;;;;;;;;;;;;;;;;;5113602;28;864;-71
2023/03/20 01:45:53;;;;;;;;;;;;;;;;;;5111827;28;1257;-71
2023/03/20 01:48:19;;;;;;;;;;;;;;;;;;5112572;28;1213;-71
2023/03/20 01:50:45;;;;;;;;;;;;;;;;;;5112074;28;1177;-71
2023/03/20 01:53:20;;;;;;;;;;;;;;;;;;5111921;28;1953;-71
2023/03/20 01:55:45;;;;;;;;;;;;;;;;;;5113375;28;891;-71
2023/03/20 01:58:37;;;;;;;;;;;;;;;;;;5111898;28;1221;-71
2023/03/20 02:01:04;;;;;;;;;;;;;;;;;;5111401;28;1107;-71
2023/03/20 02:03:30;;;;;;;;;;;;;;;;;;5113023;27;907;-71
2023/03/20 02:05:56;;;;;;;;;;;;;;;;;;5112001;28;1173;-70
2023/03/20 02:08:31;;;;;;;;;;;;;;;;;;5111651;28;1118;-70
2023/03/20 02:10:58;;;;;;;;;;;;;;;;;;5113679;28;873;-70
2023/03/20 02:13:25;;;;;;;;;;;;;;;;;;5112623;27;1901;-70
2023/03/20 02:16:10;;;;;;;;;;;;;;;;;;5111943;28;1253;-70
2023/03/20 02:18:35;;;;;;;;;;;;;;;;;;5111299;28;1296;-69
2023/03/20 02:21:07;;;;;;;;;;;;;;;;;;5112047;28;1185;-70
2023/03/20 02:23:44;;;;;;;;;;;;;;;;;;5111732;28;1246;-70
2023/03/20 02:26:21;;;;;;;;;;;;;;;;;;5111490;28;1438;-70
2023/03/20 02:28:49;;;;;;;;;;;;;;;;;;5112501;28;1186;-70
2023/03/20 02:31:17;;;;;;;;;;;;;;;;;;5112978;28;828;-70
2023/03/20 02:34:02;;;;;;;;;;;;;;;;;;5113473;28;1963;-70
2023/03/20 02:36:27;;;;;;;;;;;;;;;;;;5112900;28;864;-70
2023/03/20 02:38:57;;;;;;;;;;;;;;;;;;5112192;28;1324;-69
2023/03/20 02:41:27;;;;;;;;;;;;;;;;;;5111402;28;1157;-70
2023/03/20 02:44:13;;;;;;;;;;;;;;;;;;5112307;28;1292;-70
2023/03/20 02:46:47;;;;;;;;;;;;;;;;;;5111272;28;1210;-70
2023/03/20 02:49:18;;;;;;;;;;;;;;;;;;5113089;28;887;-69
2023/03/20 02:51:50;;;;;;;;;;;;;;;;;;5112454;28;895;-69
2023/03/20 02:54:24;;;;;;;;;;;;;;;;;;5112257;28;1894;-69
2023/03/20 02:56:56;;;;;;;;;;;;;;;;;;5112122;28;884;-69
2023/03/20 02:59:21;;;;;;;;;;;;;;;;;;5111281;28;851;-69
2023/03/20 03:01:49;;;;;;;;;;;;;;;;;;5112609;28;855;-69
2023/03/20 03:04:21;;;;;;;;;;;;;;;;;;5110184;28;1161;-69
2023/03/20 03:06:48;;;;;;;;;;;;;;;;;;5112173;28;891;-69
2023/03/20 03:09:17;;;;;;;;;;;;;;;;;;5111855;28;1129;-69
2023/03/20 03:11:47;;;;;;;;;;;;;;;;;;5111240;28;1075;-69
2023/03/20 03:14:25;;;;;;;;;;;;;;;;;;5112557;28;1905;-69
2023/03/20 03:16:52;;;;;;;;;;;;;;;;;;5112706;28;1468;-69
2023/03/20 03:19:22;;;;;;;;;;;;;;;;;;5112203;28;1191;-69
2023/03/20 03:21:47;;;;;;;;;;;;;;;;;;5114071;28;852;-69
2023/03/20 03:24:30;;;;;;;;;;;;;;;;;;5113707;28;917;-69
2023/03/20 03:26:58;;;;;;;;;;;;;;;;;;5111968;28;1340;-69
2023/03/20 03:29:25;;;;;;;;;;;;;;;;;;5113315;28;879;-69
2023/03/20 03:31:51;;;;;;;;;;;;;;;;;;5105137;28;1255;-69
2023/03/20 03:34:18;;;;;;;;;;;;;;;;;;5092748;28;1905;-70
2023/03/20 03:36:52;;;;;;;;;;;;;;;;;;5092399;28;1270;-68
2023/03/20 03:39:21;;;;;;;;;;;;;;;;;;5094573;28;872;-69
2023/03/20 03:42:05;;;;;;;;;;;;;;;;;;5094122;28;820;-69
2023/03/20 03:44:40;;;;;;;;;;;;;;;;;;5093690;28;797;-69
2023/03/20 03:47:10;;;;;;;;;;;;;;;;;;5094123;28;808;-69
2023/03/20 03:49:38;;;;;;;;;;;;;;;;;;5094016;28;879;-69
2023/03/20 03:52:05;;;;;;;;;;;;;;;;;;5092381;28;1198;-69
2023/03/20 03:54:37;;;;;;;;;;;;;;;;;;5091341;28;1967;-68
2023/03/20 03:57:04;;;;;;;;;;;;;;;;;;5093958;28;895;-69
2023/03/20 03:59:35;;;;;;;;;;;;;;;;;;5093869;28;864;-69
2023/03/20 04:02:02;;;;;;;;;;;;;;;;;;5093896;28;832;-68
2023/03/20 04:04:29;;;;;;;;;;;;;;;;;;5091232;28;904;-69
2023/03/20 04:06:54;;;;;;;;;;;;;;;;;;5091335;28;1277;-70
2023/03/20 04:09:20;;;;;;;;;;;;;;;;;;5093475;28;987;-69
2023/03/20 04:11:48;;;;;;;;;;;;;;;;;;5094558;28;904;-69
2023/03/20 04:14:13;;;;;;;;;;;;;;;;;;5095520;28;1902;-69
2023/03/20 04:16:39;;;;;;;;;;;;;;;;;;5094914;28;868;-69
2023/03/20 04:19:04;;;;;;;;;;;;;;;;;;5093695;28;1214;-69
2023/03/20 04:21:29;;;;;;;;;;;;;;;;;;5095238;28;864;-69
2023/03/20 04:23:55;;;;;;;;;;;;;;;;;;5093633;28;1175;-69
2023/03/20 04:26:20;;;;;;;;;;;;;;;;;;5093975;28;965;-69
2023/03/20 04:28:46;;;;;;;;;;;;;;;;;;5094682;28;840;-69
2023/03/20 04:31:11;;;;;;;;;;;;;;;;;;5093722;28;1177;-69
2023/03/20 04:33:36;;;;;;;;;;;;;;;;;;5093266;28;1909;-69
2023/03/20 04:36:02;;;;;;;;;;;;;;;;;;5095114;28;872;-69
2023/03/20 04:38:27;;;;;;;;;;;;;;;;;;5094693;28;825;-69
2023/03/20 04:40:52;;;;;;;;;;;;;;;;;;5093643;28;1138;-69
2023/03/20 04:43:18;;;;;;;;;;;;;;;;;;5094569;28;845;-69
2023/03/20 04:45:43;;;;;;;;;;;;;;;;;;5094484;28;876;-69
2023/03/20 04:48:08;;;;;;;;;;;;;;;;;;5093386;28;1371;-69
2023/03/20 04:50:34;;;;;;;;;;;;;;;;;;5094314;28;951;-69
2023/03/20 04:52:59;;;;;;;;;;;;;;;;;;5093237;28;876;-69
2023/03/20 04:55:25;;;;;;;;;;;;;;;;;;5092797;28;1902;-69
2023/03/20 04:57:50;;;;;;;;;;;;;;;;;;5094115;28;853;-69
2023/03/20 05:00:16;;;;;;;;;;;;;;;;;;5094425;28;780;-70
2023/03/20 05:02:41;;;;;;;;;;;;;;;;;;5076088;28;1308;-68
2023/03/20 05:05:07;;;;;;;;;;;;;;;;;;5093212;28;808;-69
2023/03/20 05:07:32;;;;;;;;;;;;;;;;;;5094425;28;983;-69
2023/03/20 05:09:57;;;;;;;;;;;;;;;;;;5093303;28;821;-68
2023/03/20 05:12:23;;;;;;;;;;;;;;;;;;5092701;28;1138;-69
2023/03/20 05:14:49;;;;;;;;;;;;;;;;;;5094154;28;1956;-69
2023/03/20 05:17:14;;;;;;;;;;;;;;;;;;5092647;28;1186;-68
2023/03/20 05:19:41;;;;;;;;;;;;;;;;;;5092602;28;1182;-69
2023/03/20 05:22:07;;;;;;;;;;;;;;;;;;5093619;28;860;-69
2023/03/20 05:24:32;;;;;;;;;;;;;;;;;;5093902;28;901;-69
2023/03/20 05:26:57;;;;;;;;;;;;;;;;;;5094301;28;1053;-68
2023/03/20 05:29:23;;;;;;;;;;;;;;;;;;5092284;28;1253;-69
2023/03/20 05:31:48;;;;;;;;;;;;;;;;;;5094027;28;983;-69
2023/03/20 05:34:14;;;;;;;;;;;;;;;;;;5092472;28;1909;-69
2023/03/20 05:36:39;;;;;;;;;;;;;;;;;;5093995;28;825;-69
2023/03/20 05:39:05;;;;;;;;;;;;;;;;;;5092446;28;864;-69
2023/03/20 05:41:30;;;;;;;;;;;;;;;;;;5092304;28;888;-68
2023/03/20 05:43:55;;;;;;;;;;;;;;;;;;5092361;28;1166;-69
2023/03/20 05:46:21;;;;;;;;;;;;;;;;;;5091931;28;872;-68
2023/03/20 05:48:47;;;;;;;;;;;;;;;;;;5092589;28;1151;-68
2023/03/20 05:51:12;;;;;;;;;;;;;;;;;;5093785;28;1050;-69
2023/03/20 05:53:37;;;;;;;;;;;;;;;;;;5093699;28;1905;-68
2023/03/20 05:56:03;;;;;;;;;;;;;;;;;;5093865;28;955;-69
2023/03/20 05:58:28;;;;;;;;;;;;;;;;;;5093440;28;816;-69
2023/03/20 06:00:53;;;;;;;;;;;;;;;;;;5074718;28;1154;-69
2023/03/20 06:03:18;;;;;;;;;;;;;;;;;;5091595;28;896;-69
2023/03/20 06:05:44;;;;;;;;;;;;;;;;;;5092947;28;817;-69
2023/03/20 06:08:09;;;;;;;;;;;;;;;;;;5091968;28;777;-68
2023/03/20 06:10:34;;;;;;;;;;;;;;;;;;5074695;28;1174;-69
2023/03/20 06:13:00;;;;;;;;;;;;;;;;;;5091717;28;1170;-69
2023/03/20 06:15:27;;;;;;;;;;;;;;;;;;5091817;28;1976;-69
2023/03/20 06:17:52;;;;;;;;;;;;;;;;;;5091285;28;884;-69
2023/03/20 06:20:17;;;;;;;;;;;;;;;;;;5090896;28;1285;-69
2023/03/20 06:22:43;;;;;;;;;;;;;;;;;;5102995;28;1290;-70
2023/03/20 06:25:08;;;;;;;;;;;;;;;;;;5112167;28;1272;-69
2023/03/20 06:27:34;;;;;;;;;;;;;;;;;;5111770;28;1225;-70
2023/03/20 06:30:00;;;;;;;;;;;;;;;;;;5111764;28;836;-70
2023/03/20 06:32:26;;;;;;;;;;;;;;;;;;5094756;28;1166;-70
2023/03/20 06:34:51;;;;;;;;;;;;;;;;;;5111916;28;1989;-70
2023/03/20 06:37:16;;;;;;;;;;;;;;;;;;5112452;28;943;-70
2023/03/20 06:39:41;;;;;;;;;;;;;;;;;;5112795;28;892;-70
2023/03/20 06:42:07;;;;;;;;;;;;;;;;;;5111897;28;1153;-70
2023/03/20 06:44:32;;;;;;;;;;;;;;;;;;5112094;28;860;-70
2023/03/20 06:46:57;;;;;;;;;;;;;;;;;;5113149;28;813;-70
2023/03/20 06:49:23;;;;;;;;;;;;;;;;;;5098680;28;1228;-70
2023/03/20 06:51:49;;;;;;;;;;;;;;;;;;5094768;28;1159;-70
2023/03/20 06:54:14;;;;;;;;;;;;;;;;;;5108310;28;1909;-70
2023/03/20 06:56:39;;;;;;;;;;;;;;;;;;5103186;28;1329;-70
2023/03/20 06:59:08;;;;;;;;;;;;;;;;;;5094877;28;1401;-70
2023/03/20 07:01:33;;;;;;;;;;;;;;;;;;5111459;28;847;-69
2023/03/20 07:04:00;;;;;;;;;;;;;;;;;;5111276;28;1312;-71
2023/03/20 07:06:25;;;;;;;;;;;;;;;;;;5111323;28;1071;-70
2023/03/20 07:08:51;;;;;;;;;;;;;;;;;;5094276;28;1167;-70
2023/03/20 07:11:17;;;;;;;;;;;;;;;;;;5112094;28;884;-69
2023/03/20 07:13:42;;;;;;;;;;;;;;;;;;5112267;28;1906;-70
2023/03/20 07:16:08;;;;;;;;;;;;;;;;;;5112641;28;948;-70
2023/03/20 07:18:33;;;;;;;;;;;;;;;;;;5111074;28;1157;-71
2023/03/20 07:21:01;;;;;;;;;;;;;;;;;;5111095;28;1223;-71
2023/03/20 07:23:26;;;;;;;;;;;;;;;;;;5111188;28;1336;-71
2023/03/20 07:25:52;;;;;;;;;;;;;;;;;;5093735;28;1422;-71
2023/03/20 07:28:17;;;;;;;;;;;;;;;;;;5111900;28;883;-71
2023/03/20 07:30:42;;;;;;;;;;;;;;;;;;5110876;28;911;-71
2023/03/20 07:33:08;;;;;;;;;;;;;;;;;;5112938;28;874;-71
2023/03/20 07:35:33;;;;;;;;;;;;;;;;;;5111309;28;1882;-71
2023/03/20 07:37:58;;;;;;;;;;;;;;;;;;5112481;28;808;-71
2023/03/20 07:40:24;;;;;;;;;;;;;;;;;;5111765;28;754;-71
2023/03/20 07:42:51;;;;;;;;;;;;;;;;;;5110840;28;1134;-71
2023/03/20 07:45:17;;;;;;;;;;;;;;;;;;5114664;28;936;-71
2023/03/20 07:47:42;;;;;;;;;;;;;;;;;;5114628;28;907;-71
2023/03/20 07:50:08;;;;;;;;;;;;;;;;;;5115045;28;1241;-71
2023/03/20 07:52:33;;;;;;;;;;;;;;;;;;5115237;28;1256;-71
2023/03/20 07:54:58;;;;;;;;;;;;;;;;;;5115872;28;1897;-71
2023/03/20 07:57:24;;;;;;;;;;;;;;;;;;5114282;28;1106;-71
2023/03/20 07:59:49;;;;;;;;;;;;;;;;;;5114411;28;813;-70
2023/03/20 08:02:15;;;;;;;;;;;;;;;;;;5115520;28;872;-69
2023/03/20 08:04:41;;;;;;;;;;;;;;;;;;5114693;28;789;-69
2023/03/20 08:07:06;;;;;;;;;;;;;;;;;;5114222;28;1079;-69
2023/03/20 08:09:32;;;;;;;;;;;;;;;;;;5114492;28;1212;-69
2023/03/20 08:11:57;;;;;;;;;;;;;;;;;;5113435;28;1260;-69
2023/03/20 08:14:22;;;;;;;;;;;;;;;;;;5095011;28;1965;-69
2023/03/20 08:16:47;;;;;;;;;;;;;;;;;;5077430;28;1198;-69
2023/03/20 08:19:13;;;;;;;;;;;;;;;;;;5095254;28;1112;-69
2023/03/20 08:21:39;;;;;;;;;;;;;;;;;;5093689;28;1341;-68
2023/03/20 08:24:05;;;;;;;;;;;;;;;;;;5095479;28;883;-69
2023/03/20 08:26:30;;;;;;;;;;;;;;;;;;5093755;28;931;-69
2023/03/20 08:28:56;;;;;;;;;;;;;;;;;;5094397;28;888;-69
2023/03/20 08:31:21;;;;;;;;;;;;;;;;;;5094418;28;925;-69
2023/03/20 08:33:47;;;;;;;;;;;;;;;;;;5094213;28;1898;-69
2023/03/20 08:36:14;;;;;;;;;;;;;;;;;;5093521;28;820;-69
2023/03/20 08:38:39;;;;;;;;;;;;;;;;;;5093341;28;1329;-69
2023/03/20 08:41:05;;;;;;;;;;;;;;;;;;5093305;28;1273;-69
2023/03/20 08:43:31;;;;;;;;;;;;;;;;;;5076385;28;1195;-70
2023/03/20 08:45:56;;;;;;;;;;;;;;;;;;5076197;28;1161;-70
2023/03/20 08:48:21;;;;;;;;;;;;;;;;;;5076360;28;1190;-69
2023/03/20 08:50:47;;;;;;;;;;;;;;;;;;5094735;28;884;-69
2023/03/20 08:53:12;;;;;;;;;;;;;;;;;;5092792;28;1898;-69
2023/03/20 08:55:37;;;;;;;;;;;;;;;;;;5074970;28;1178;-69
2023/03/20 08:58:02;;;;;;;;;;;;;;;;;;5092962;28;857;-69
2023/03/20 09:00:28;;;;;;;;;;;;;;;;;;5094090;28;1050;-69
2023/03/20 09:02:53;;;;;;;;;;;;;;;;;;5093833;28;989;-69
2023/03/20 09:05:18;;;;;;;;;;;;;;;;;;5092910;28;1302;-68
2023/03/20 09:07:44;;;;;;;;;;;;;;;;;;5093581;28;1241;-69
2023/03/20 09:10:10;;;;;;;;;;;;;;;;;;5093862;28;895;-68
2023/03/20 09:12:35;;;;;;;;;;;;;;;;;;5094351;28;800;-69
2023/03/20 09:15:01;;;;;;;;;;;;;;;;;;5075958;28;1914;-68
2023/03/20 09:17:26;;;;;;;;;;;;;;;;;;5094078;28;899;-69
2023/03/20 09:19:51;;;;;;;;;;;;;;;;;;5075348;28;1286;-69
2023/03/20 09:22:17;;;;;;;;;;;;;;;;;;5093583;28;844;-69
2023/03/20 09:24:43;;;;;;;;;;;;;;;;;;5093715;28;1027;-69
2023/03/20 09:27:08;;;;;;;;;;;;;;;;;;5093924;28;849;-69
2023/03/20 09:29:33;;;;;;;;;;;;;;;;;;5094578;28;781;-69
2023/03/20 09:31:59;;;;;;;;;;;;;;;;;;5093592;28;786;-69
2023/03/20 09:34:24;;;;;;;;;;;;;;;;;;5076083;28;1994;-69
2023/03/20 09:36:49;;;;;;;;;;;;;;;;;;5094012;28;904;-69
2023/03/20 09:39:14;;;;;;;;;;;;;;;;;;5092113;28;1118;-69
2023/03/20 09:41:45;;;;;;;;;;;;;;;;;;5093787;28;927;-69
2023/03/20 09:44:20;;;;;;;;;;;;;;;;;;5092361;28;1274;-69
2023/03/20 09:46:53;;;;;;;;;;;;;;;;;;5093595;28;1010;-69
2023/03/20 09:49:37;;;;;;;;;;;;;;;;;;5092873;28;868;-70
2023/03/20 09:52:17;;;;;;;;;;;;;;;;;;5093200;28;832;-70
2023/03/20 09:54:44;;;;;;;;;;;;;;;;;;5093228;28;1967;-70
2023/03/20 09:57:21;;;;;;;;;;;;;;;;;;5091251;28;1285;-70
2023/03/20 09:59:47;;;;;;;;;;;;;;;;;;5092862;28;828;-70
2023/03/20 10:02:23;;;;;;;;;;;;;;;;;;5091201;28;1344;-70
2023/03/20 10:04:50;;;;;;;;;;;;;;;;;;5091596;28;1223;-70
2023/03/20 10:07:16;;;;;;;;;;;;;;;;;;5090110;28;1429;-70
2023/03/20 10:09:44;;;;;;;;;;;;;;;;;;5092589;28;929;-70
2023/03/20 10:12:23;;;;;;;;;;;;;;;;;;5092520;28;848;-70
2023/03/20 10:15:07;;;;;;;;;;;;;;;;;;5092881;28;1902;-70
2023/03/20 10:17:32;;;;;;;;;;;;;;;;;;5092596;28;794;-70
2023/03/20 10:20:20;;;;;;;;;;;;;;;;;;5092345;28;1160;-70
2023/03/20 10:22:47;;;;;;;;;;;;;;;;;;5091174;28;1353;-70
2023/03/20 10:25:22;;;;;;;;;;;;;;;;;;5090835;28;1190;-70
2023/03/20 10:27:55;;;;;;;;;;;;;;;;;;5092688;28;742;-70
2023/03/20 10:30:21;;;;;;;;;;;;;;;;;;5091060;28;1345;-70
2023/03/20 10:32:58;;;;;;;;;;;;;;;;;;5091290;28;1298;-70
2023/03/20 10:35:23;;;;;;;;;;;;;;;;;;5092228;28;1968;-70
2023/03/20 10:38:15;;;;;;;;;;;;;;;;;;5091478;28;1378;-71
2023/03/20 10:40:41;;;;;;;;;;;;;;;;;;5090050;28;1015;-70
2023/03/20 10:43:16;;;;;;;;;;;;;;;;;;5092256;28;824;-70
2023/03/20 10:45:41;;;;;;;;;;;;;;;;;;5092568;28;876;-69
2023/03/20 10:48:14;;;;;;;;;;;;;;;;;;5092244;28;828;-70
2023/03/20 10:50:42;;;;;;;;;;;;;;;;;;5090067;28;1333;-71
2023/03/20 10:53:16;;;;;;;;;;;;;;;;;;5092121;28;778;-71
2023/03/20 10:55:42;;;;;;;;;;;;;;;;;;5092286;28;891;-71
2023/03/20 10:58:13;;;;;;;;;;;;;;;;;;5090745;28;1329;-72
2023/03/20 11:00:39;;;;;;;;;;;;;;;;;;5091025;28;1004;-71
2023/03/20 11:03:05;;;;;;;;;;;;;;;;;;5090928;28;1345;-72
2023/03/20 11:05:32;;;;;;;;;;;;;;;;;;5092557;28;979;-71
2023/03/20 11:08:11;;;;;;;;;;;;;;;;;;5091085;28;1332;-71
2023/03/20 11:10:37;;;;;;;;;;;;;;;;;;5090941;28;1166;-71
2023/03/20 11:13:15;;;;;;;;;;;;;;;;;;5092483;28;875;-72
2023/03/20 11:15:40;;;;;;;;;;;;;;;;;;5090778;28;1910;-71
2023/03/20 11:18:12;;;;;;;;;;;;;;;;;;5073675;28;1182;-72
2023/03/20 11:20:43;;;;;;;;;;;;;;;;;;5094979;28;1238;-72
2023/03/20 11:23:14;;;;;;;;;;;;;;;;;;5094891;28;1166;-72
2023/03/20 11:25:46;;;;;;;;;;;;;;;;;;5095632;28;924;-71
2023/03/20 11:28:19;;;;;;;;;;;;;;;;;;5095746;28;682;-71
2023/03/20 11:30:45;;;;;;;;;;;;;;;;;;5092765;28;1423;-71
2023/03/20 11:33:11;;;;;;;;;;;;;;;;;;5094207;28;1265;-71
2023/03/20 11:35:36;;;;;;;;;;;;;;;;;;5095723;28;1914;-71
2023/03/20 11:38:19;;;;;;;;;;;;;;;;;;5077580;28;1343;-71
2023/03/20 11:40:47;;;;;;;;;;;;;;;;;;5095649;28;789;-71
2023/03/20 11:43:13;;;;;;;;;;;;;;;;;;5095303;28;824;-71
2023/03/20 11:45:43;;;;;;;;;;;;;;;;;;5093858;28;1300;-70
2023/03/20 11:48:20;;;;;;;;;;;;;;;;;;5094117;28;1249;-70
2023/03/20 11:51:11;;;;;;;;;;;;;;;;;;5095637;28;832;-70
2023/03/20 11:53:46;;;;;;;;;;;;;;;;;;5091311;28;1898;-70
2023/03/20 11:56:20;;;;;;;;;;;;;;;;;;5095104;28;982;-70
2023/03/20 11:58:49;;;;;;;;;;;;;;;;;;5095327;28;872;-70
2023/03/20 12:01:15;;;;;;;;;;;;;;;;;;5093418;28;1216;-71
2023/03/20 12:03:59;;;;;;;;;;;;;;;;;;5093326;28;1036;-70
2023/03/20 12:06:25;;;;;;;;;;;;;;;;;;5094516;28;896;-69
2023/03/20 12:08:59;;;;;;;;;;;;;;;;;;5095144;28;833;-70
2023/03/20 12:11:38;;;;;;;;;;;;;;;;;;5094177;28;832;-70
2023/03/20 12:14:07;;;;;;;;;;;;;;;;;;5094011;28;1903;-69
2023/03/20 12:16:35;;;;;;;;;;;;;;;;;;5093411;28;1092;-69
2023/03/20 12:19:03;;;;;;;;;;;;;;;;;;5093563;28;1205;-69
2023/03/20 12:21:42;;;;;;;;;;;;;;;;;;5093125;28;1290;-69
2023/03/20 12:24:27;;;;;;;;;;;;;;;;;;5095071;28;884;-69
2023/03/20 12:27:11;;;;;;;;;;;;;;;;;;5073223;28;1258;-70
2023/03/20 12:29:41;;;;;;;;;;;;;;;;;;5095038;28;940;-70
2023/03/20 12:32:25;;;;;;;;;;;;;;;;;;5093952;28;1391;-69
2023/03/20 12:35:04;;;;;;;;;;;;;;;;;;5095230;28;1898;-69
2023/03/20 12:37:31;;;;;;;;;;;;;;;;;;5093510;28;1325;-69
2023/03/20 12:39:58;;;;;;;;;;;;;;;;;;5093599;28;1159;-69
2023/03/20 12:42:26;;;;;;;;;;;;;;;;;;5093132;28;1154;-69
2023/03/20 12:44:57;;;;;;;;;;;;;;;;;;5094830;28;875;-69
2023/03/20 12:47:41;;;;;;;;;;;;;;;;;;5092370;28;1346;-69
2023/03/20 12:50:10;;;;;;;;;;;;;;;;;;5094518;28;1045;-69
2023/03/20 12:52:43;;;;;;;;;;;;;;;;;;5092577;28;1179;-69
2023/03/20 12:55:17;;;;;;;;;;;;;;;;;;5099405;28;1898;-69
2023/03/20 12:57:57;;;;;;;;;;;;;;;;;;5103184;28;1108;-69
2023/03/20 13:00:30;;;;;;;;;;;;;;;;;;5099894;28;1131;-69
2023/03/20 13:03:11;;;;;;;;;;;;;;;;;;5095187;28;852;-69
2023/03/20 13:05:39;;;;;;;;;;;;;;;;;;5093217;28;1097;-69
2023/03/20 13:08:28;;;;;;;;;;;;;;;;;;5094006;28;1376;-69
2023/03/20 13:10:59;;;;;;;;;;;;;;;;;;5094687;28;888;-69
2023/03/20 13:13:32;;;;;;;;;;;;;;;;;;5094462;28;1906;-69
2023/03/20 13:16:04;;;;;;;;;;;;;;;;;;5094665;28;880;-69
2023/03/20 13:18:43;;;;;;;;;;;;;;;;;;5093627;28;1147;-70
2023/03/20 13:21:12;;;;;;;;;;;;;;;;;;5092906;28;1218;-70
2023/03/20 13:23:50;;;;;;;;;;;;;;;;;;5092957;28;1203;-69
2023/03/20 13:26:24;;;;;;;;;;;;;;;;;;5094531;28;1042;-69
2023/03/20 13:28:49;;;;;;;;;;;;;;;;;;5094290;28;809;-69
2023/03/20 13:31:15;;;;;;;;;;;;;;;;;;5094080;28;832;-69
2023/03/20 13:33:40;;;;;;;;;;;;;;;;;;5092989;28;1914;-70
2023/03/20 13:36:24;;;;;;;;;;;;;;;;;;5092204;28;1333;-69
2023/03/20 13:38:55;;;;;;;;;;;;;;;;;;5093267;28;840;-70
2023/03/20 13:41:21;;;;;;;;;;;;;;;;;;5091650;28;1166;-69
2023/03/20 13:43:48;;;;;;;;;;;;;;;;;;5092748;28;868;-69
2023/03/20 13:46:19;;;;;;;;;;;;;;;;;;5092434;28;891;-68
2023/03/20 13:48:44;;;;;;;;;;;;;;;;;;5091225;28;1305;-68
2023/03/20 13:51:15;;;;;;;;;;;;;;;;;;5092715;28;892;-68
2023/03/20 13:53:40;;;;;;;;;;;;;;;;;;5090944;28;1957;-68
2023/03/20 13:56:21;;;;;;;;;;;;;;;;;;5091528;28;1213;-68
2023/03/20 13:59:02;;;;;;;;;;;;;;;;;;5092732;28;849;-69
2023/03/20 14:01:34;;;;;;;;;;;;;;;;;;5091237;28;1217;-69
2023/03/20 14:04:00;;;;;;;;;;;;;;;;;;5093575;28;865;-69
2023/03/20 14:06:42;;;;;;;;;;;;;;;;;;5091680;28;1233;-69
2023/03/20 14:09:23;;;;;;;;;;;;;;;;;;5091716;28;1268;-69
2023/03/20 14:11:48;;;;;;;;;;;;;;;;;;5093050;28;975;-69
2023/03/20 14:14:24;;;;;;;;;;;;;;;;;;5074753;28;1971;-68
2023/03/20 14:16:59;;;;;;;;;;;;;;;;;;5092997;28;888;-70
2023/03/20 14:19:25;;;;;;;;;;;;;;;;;;5092224;28;1094;-72
2023/03/20 14:21:53;;;;;;;;;;;;;;;;;;5074380;28;1301;-70
2023/03/20 14:24:19;;;;;;;;;;;;;;;;;;5091366;28;1242;-69
2023/03/20 14:26:49;;;;;;;;;;;;;;;;;;5091536;28;977;-69
2023/03/20 14:29:15;;;;;;;;;;;;;;;;;;5091037;28;1395;-70
2023/03/20 14:31:44;;;;;;;;;;;;;;;;;;5090728;28;1262;-69
2023/03/20 14:34:12;;;;;;;;;;;;;;;;;;5092627;28;1968;-69
2023/03/20 14:36:46;;;;;;;;;;;;;;;;;;5090688;28;1285;-70
2023/03/20 14:39:12;;;;;;;;;;;;;;;;;;5092715;28;879;-70
2023/03/20 14:41:46;;;;;;;;;;;;;;;;;;5092159;28;959;-70
2023/03/20 14:44:21;;;;;;;;;;;;;;;;;;5124781;27;1318;-70
2023/03/20 14:47:16;;;;;;;;;;;;;;;;;;5090485;28;1279;-71
2023/03/20 14:49:42;;;;;;;;;;;;;;;;;;5094987;28;1179;-73
2023/03/20 14:52:22;;;;;;;;;;;;;;;;;;5102226;28;1241;-70
2023/03/20 14:54:54;;;;;;;;;;;;;;;;;;5109795;28;1955;-70
2023/03/20 14:57:32;;;;;;;;;;;;;;;;;;5110920;28;1419;-70
2023/03/20 14:59:58;;;;;;;;;;;;;;;;;;5112940;28;871;-69
2023/03/20 15:02:30;;;;;;;;;;;;;;;;;;5110848;28;1293;-70
2023/03/20 15:04:56;;;;;;;;;;;;;;;;;;5112115;28;828;-70
2023/03/20 15:07:23;;;;;;;;;;;;;;;;;;5111059;28;817;-70
2023/03/20 15:09:50;;;;;;;;;;;;;;;;;;5110962;28;1340;-70
2023/03/20 15:12:18;;;;;;;;;;;;;;;;;;5112657;28;1033;-70
2023/03/20 15:14:56;;;;;;;;;;;;;;;;;;5110256;28;1922;-70
2023/03/20 15:17:23;;;;;;;;;;;;;;;;;;5111121;28;1213;-70
2023/03/20 15:19:49;;;;;;;;;;;;;;;;;;5111149;28;1150;-71
2023/03/20 15:22:16;;;;;;;;;;;;;;;;;;5110440;28;1229;-71
2023/03/20 15:24:42;;;;;;;;;;;;;;;;;;5110431;28;1320;-71
2023/03/20 15:27:10;;;;;;;;;;;;;;;;;;5111440;28;1174;-70
2023/03/20 15:29:35;;;;;;;;;;;;;;;;;;5113044;28;888;-70
2023/03/20 15:32:01;;;;;;;;;;;;;;;;;;5111117;28;1322;-70
2023/03/20 15:34:28;;;;;;;;;;;;;;;;;;5094063;28;1980;-70
2023/03/20 15:36:57;;;;;;;;;;;;;;;;;;5112218;28;896;-70
2023/03/20 15:39:26;;;;;;;;;;;;;;;;;;5111349;28;1237;-70
2023/03/20 15:41:56;;;;;;;;;;;;;;;;;;5110779;28;1233;-69
2023/03/20 15:44:23;;;;;;;;;;;;;;;;;;5110853;28;1333;-69
2023/03/20 15:47:07;;;;;;;;;;;;;;;;;;5112266;28;863;-70
2023/03/20 15:49:33;;;;;;;;;;;;;;;;;;5111926;28;837;-70
2023/03/20 15:52:01;;;;;;;;;;;;;;;;;;5094002;28;1455;-70
2023/03/20 15:54:27;;;;;;;;;;;;;;;;;;5110337;28;1905;-71
2023/03/20 15:56:55;;;;;;;;;;;;;;;;;;5110645;28;762;-71
2023/03/20 15:59:22;;;;;;;;;;;;;;;;;;5112022;28;884;-70
2023/03/20 16:01:49;;;;;;;;;;;;;;;;;;5110942;28;1276;-71
2023/03/20 16:04:15;;;;;;;;;;;;;;;;;;5110811;28;1239;-70
2023/03/20 16:06:46;;;;;;;;;;;;;;;;;;5096611;28;1243;-70
2023/03/20 16:09:13;;;;;;;;;;;;;;;;;;5116285;28;875;-70
2023/03/20 16:11:39;;;;;;;;;;;;;;;;;;5114315;28;1288;-70
2023/03/20 16:14:06;;;;;;;;;;;;;;;;;;5115773;28;1906;-70
2023/03/20 16:16:36;;;;;;;;;;;;;;;;;;5114054;28;1122;-70
2023/03/20 16:19:03;;;;;;;;;;;;;;;;;;5114553;28;1225;-71
2023/03/20 16:21:32;;;;;;;;;;;;;;;;;;5113894;28;1327;-71
2023/03/20 16:23:58;;;;;;;;;;;;;;;;;;5115636;28;911;-71
2023/03/20 16:26:24;;;;;;;;;;;;;;;;;;5114977;28;905;-72
2023/03/20 16:28:52;;;;;;;;;;;;;;;;;;5114197;28;1277;-71
2023/03/20 16:31:24;;;;;;;;;;;;;;;;;;5114535;28;1362;-72
2023/03/20 16:33:49;;;;;;;;;;;;;;;;;;5113828;28;1977;-72
2023/03/20 16:36:21;;;;;;;;;;;;;;;;;;5115445;28;851;-72
2023/03/20 16:39:05;;;;;;;;;;;;;;;;;;5113914;28;1190;-72
2023/03/20 16:41:32;;;;;;;;;;;;;;;;;;5115345;28;887;-72
2023/03/20 16:43:57;;;;;;;;;;;;;;;;;;5114149;28;1173;-72
2023/03/20 16:46:27;;;;;;;;;;;;;;;;;;5114794;28;1226;-70
2023/03/20 16:48:57;;;;;;;;;;;;;;;;;;5116300;28;894;-69
2023/03/20 16:51:25;;;;;;;;;;;;;;;;;;5113927;28;1174;-71
2023/03/20 16:53:53;;;;;;;;;;;;;;;;;;5115992;28;1898;-71
2023/03/20 16:56:24;;;;;;;;;;;;;;;;;;5113654;28;1149;-71
2023/03/20 16:58:50;;;;;;;;;;;;;;;;;;5115070;28;789;-71
2023/03/20 17:01:18;;;;;;;;;;;;;;;;;;5115165;27;879;-71
2023/03/20 17:03:43;;;;;;;;;;;;;;;;;;5113041;28;1193;-71
2023/03/20 17:06:17;;;;;;;;;;;;;;;;;;5113172;28;1166;-71
2023/03/20 17:08:45;;;;;;;;;;;;;;;;;;5114064;28;914;-71
2023/03/20 17:11:12;;;;;;;;;;;;;;;;;;5114824;28;939;-71
2023/03/20 17:13:38;;;;;;;;;;;;;;;;;;5114248;28;1907;-71
2023/03/20 17:16:03;;;;;;;;;;;;;;;;;;5096232;28;1198;-71
2023/03/20 17:18:28;;;;;;;;;;;;;;;;;;5107324;28;1186;-72
2023/03/20 17:20:54;;;;;;;;;;;;;;;;;;5114289;28;1307;-71